Etusivu
METAR-TAF:

METAR-TAF

Lentoasemat :

Fort Bliss, Texas, Yhdysvallat

Leveyspiiri: 31-50-58N, Pituuspiiri: 106-22-48W, korkeus merenpinnasta: 1203 m

Tämänhetkinen sää

Tämä raportti tehtiin 1 tunti ja 2 minuuttia sitten, kello 16.58 UTC
tyyntä
Lämpötila 12°C
Kosteus 22%
Ilmanpaine 1019 hPa
Näkyvyys: 16.1 km
selkeää

METAR: KBIF 271658Z AUTO 00000KT 10SM CLR 12/M09 A3008 RMK AO2 SLP155 T01221095 $

Aika: 11:00 (18:00 UTC)

Sääennuste

Tämä raportti tehtiin 35 tuntia ja 59 minuuttia sitten, kello 06.01 UTC
Ennuste voimassa 26. päivästä klo 06 UTC - 27. päivään klo 12 UTC
Tuuli 6 kn eri suunnista
Näkyvyys: 3013 m
selkeää

TAF: KBIF 260601Z 2606/2712 VRB06KT 9999 SKC QNH2996INS TX20/2621Z TNM01/2615Z LAST NO AMDS AFT 2606 NEXT 3013

Säähavainnot ja -ennusteet yli 4000 lentoasemalta (METAR- ja TAF-raportit).

Käytössä olevat sääasemat on merkitty karttaan keltaisilla ja punaisilla pisteillä.

Aseta hiiri pisteen päälle nähdäksesi sääaseman nimen.

Klikkaa sitten nähdäksesi säähavainnot ja -ennusteet.

Kartan vaihtaminen: klikkaa mustalla rastilla varustettuja vihreitä pisteitä, niin voit zoomata sisään; viivalla varustettua vihreää pistettä, niin voit zoomata ulos tai vihreitä nuolia, niin pääset viereisille kartoille.


METAR-TAF: